Time;durP1;ratioP1;P1;durP2;ratioP2;P2;SDS_P1;SDS_P2;PMS_P1;PMS_P2;Temp;Humidity;BMP_temperature;BMP_pressure;BME280_temperature;BME280_humidity;BME280_pressure;Samples;Min_cycle;Max_cycle;Signal;HPM_P1;HPM_P2
2023/03/15 04:00:36;;;;;;;3.00;1.73;;;2.40;83.50;;;;;;5971753;23;20381;-73
2023/03/15 04:03:02;;;;;;;3.53;1.70;;;2.40;84.10;;;;;;4974300;28;20475;-74
2023/03/15 04:05:29;;;;;;;2.60;1.57;;;2.40;83.90;;;;;;4974303;28;20449;-73
2023/03/15 04:07:56;;;;;;;4.20;1.70;;;2.50;84.10;;;;;;4974308;28;20869;-74
2023/03/15 04:10:25;;;;;;;3.93;1.47;;;2.50;83.90;;;;;;4974226;28;20459;-75
2023/03/15 04:12:53;;;;;;;2.77;1.40;;;2.60;83.50;;;;;;4974259;28;20635;-74
2023/03/15 04:15:21;;;;;;;3.23;1.43;;;2.50;83.20;;;;;;4974796;28;20449;-74
2023/03/15 04:17:54;;;;;;;2.13;1.00;;;2.50;83.30;;;;;;4974219;28;20462;-74
2023/03/15 04:20:21;;;;;;;4.27;1.47;;;2.50;83.50;;;;;;4974247;28;20438;-75
2023/03/15 04:22:49;;;;;;;2.40;1.20;;;2.70;83.40;;;;;;4974135;28;20509;-74
2023/03/15 04:25:16;;;;;;;3.00;1.43;;;2.70;82.70;;;;;;4974219;28;20489;-73
2023/03/15 04:27:42;;;;;;;3.67;1.80;;;2.80;82.70;;;;;;4974134;28;20496;-74
2023/03/15 04:30:10;;;;;;;3.23;1.70;;;3.00;82.50;;;;;;4974127;28;20446;-74
2023/03/15 04:32:37;;;;;;;4.37;1.80;;;3.00;81.60;;;;;;4974071;28;20897;-74
2023/03/15 04:35:06;;;;;;;3.20;1.50;;;3.10;81.40;;;;;;4974350;28;20458;-74
2023/03/15 04:37:32;;;;;;;2.60;1.53;;;3.20;81.10;;;;;;4977708;28;20483;-74
2023/03/15 04:40:00;;;;;;;3.03;1.50;;;3.00;80.80;;;;;;4977660;28;20446;-74
2023/03/15 04:42:26;;;;;;;3.07;1.50;;;3.10;81.00;;;;;;4977266;28;20568;-73
2023/03/15 04:44:53;;;;;;;3.63;1.70;;;3.00;81.30;;;;;;4977561;28;20453;-75
2023/03/15 04:47:21;;;;;;;3.20;1.50;;;3.10;81.30;;;;;;4977496;28;20533;-74
2023/03/15 04:49:48;;;;;;;3.53;1.60;;;3.20;81.00;;;;;;4977462;28;20459;-75
2023/03/15 04:52:16;;;;;;;2.73;1.53;;;3.30;80.70;;;;;;4977548;28;20540;-73
2023/03/15 04:54:42;;;;;;;3.27;1.50;;;3.40;80.30;;;;;;4977405;28;20533;-74
2023/03/15 04:57:09;;;;;;;3.43;1.87;;;3.40;80.00;;;;;;4977332;28;20465;-74
2023/03/15 04:59:36;;;;;;;6.73;2.10;;;3.40;80.00;;;;;;4977281;28;20481;-74
2023/03/15 05:02:02;;;;;;;3.80;1.33;;;3.50;79.30;;;;;;4976693;28;20916;-74
2023/03/15 05:04:29;;;;;;;4.00;2.00;;;3.40;79.30;;;;;;4977213;28;20454;-74
2023/03/15 05:06:56;;;;;;;4.43;1.83;;;3.40;79.60;;;;;;4977268;28;20453;-74
2023/03/15 05:09:24;;;;;;;3.80;1.93;;;3.40;79.60;;;;;;4977238;28;20446;-73
2023/03/15 05:11:50;;;;;;;2.77;1.43;;;3.30;79.50;;;;;;4977152;28;20477;-74
2023/03/15 05:14:17;;;;;;;4.47;2.53;;;3.30;79.60;;;;;;4977065;28;20529;-73
2023/03/15 05:16:45;;;;;;;3.37;1.70;;;3.20;79.60;;;;;;4976941;28;20473;-74
2023/03/15 05:19:12;;;;;;;3.23;1.93;;;3.30;80.00;;;;;;4976979;28;20456;-73
2023/03/15 05:21:39;;;;;;;4.43;1.67;;;3.30;79.60;;;;;;4976792;28;20541;-74
2023/03/15 05:24:05;;;;;;;4.67;1.93;;;3.20;79.50;;;;;;4976883;28;20450;-74
2023/03/15 05:26:33;;;;;;;2.93;1.83;;;3.30;79.40;;;;;;4976539;28;20943;-74
2023/03/15 05:29:00;;;;;;;2.70;1.67;;;3.30;79.20;;;;;;4976435;28;21017;-73
2023/03/15 05:31:27;;;;;;;3.33;1.60;;;3.30;79.30;;;;;;4976621;28;20469;-73
2023/03/15 05:33:53;;;;;;;4.23;2.07;;;3.40;79.10;;;;;;4976662;28;20462;-74
2023/03/15 05:36:20;;;;;;;3.33;1.83;;;3.40;79.10;;;;;;4976645;28;20446;-72
2023/03/15 05:38:47;;;;;;;3.10;1.60;;;3.50;79.30;;;;;;4976632;28;20819;-72
2023/03/15 05:41:16;;;;;;;3.70;1.73;;;3.50;78.80;;;;;;4976058;28;20900;-72
2023/03/15 05:43:45;;;;;;;3.10;1.73;;;3.50;79.00;;;;;;4976205;28;20828;-73
2023/03/15 05:46:11;;;;;;;2.70;1.80;;;3.60;78.40;;;;;;4976344;28;20447;-72
2023/03/15 05:48:38;;;;;;;2.93;1.60;;;3.50;78.10;;;;;;4975795;28;20869;-73
2023/03/15 05:51:05;;;;;;;3.13;1.60;;;3.30;78.10;;;;;;4976268;28;20474;-73
2023/03/15 05:53:31;;;;;;;3.13;1.97;;;3.10;78.80;;;;;;4976006;28;20939;-73
2023/03/15 05:55:58;;;;;;;4.10;1.90;;;3.10;79.50;;;;;;4976197;28;20488;-72
2023/03/15 05:58:25;;;;;;;4.10;1.70;;;3.20;79.30;;;;;;4976187;28;20446;-72
2023/03/15 06:00:53;;;;;;;3.10;2.03;;;3.20;78.60;;;;;;4975907;28;20490;-73
2023/03/15 06:03:20;;;;;;;4.40;2.27;;;3.10;78.60;;;;;;4976027;28;20898;-73
2023/03/15 06:05:46;;;;;;;4.00;1.90;;;3.10;79.20;;;;;;4975728;28;20947;-72
2023/03/15 06:08:13;;;;;;;4.80;2.20;;;2.90;79.20;;;;;;4976037;28;20446;-72
2023/03/15 06:10:40;;;;;;;3.10;1.77;;;3.00;80.00;;;;;;4975621;28;20874;-73
2023/03/15 06:13:06;;;;;;;4.33;2.03;;;3.20;78.60;;;;;;4975879;28;20442;-73
2023/03/15 06:15:33;;;;;;;4.40;2.63;;;3.30;78.60;;;;;;4976361;28;20451;-73
2023/03/15 06:18:01;;;;;;;3.93;1.50;;;3.50;78.40;;;;;;4975855;28;20870;-73
2023/03/15 06:20:28;;;;;;;3.70;2.03;;;3.60;77.70;;;;;;4975331;28;20939;-73
2023/03/15 06:22:54;;;;;;;3.67;2.23;;;3.80;77.80;;;;;;4975344;28;20539;-73
2023/03/15 06:25:21;;;;;;;3.70;1.93;;;3.90;76.70;;;;;;4975705;28;20469;-72
2023/03/15 06:27:47;;;;;;;3.10;2.07;;;4.00;76.50;;;;;;4975660;28;20454;-74
2023/03/15 06:30:15;;;;;;;3.90;1.80;;;4.00;76.60;;;;;;4975637;28;20458;-72
2023/03/15 06:32:42;;;;;;;6.43;2.10;;;4.20;76.30;;;;;;4975544;28;20470;-73
2023/03/15 06:35:10;;;;;;;4.13;1.70;;;5.30;75.80;;;;;;4975473;28;20541;-73
2023/03/15 06:37:36;;;;;;;3.27;2.10;;;6.50;70.90;;;;;;4975550;28;20450;-75
2023/03/15 06:40:06;;;;;;;2.90;1.40;;;8.20;69.20;;;;;;4975454;28;20505;-75
2023/03/15 06:42:33;;;;;;;3.37;1.40;;;9.90;64.70;;;;;;4975280;28;20487;-74
2023/03/15 06:45:01;;;;;;;3.60;1.50;;;11.10;59.40;;;;;;4975366;28;20457;-73
2023/03/15 06:47:27;;;;;;;3.60;1.80;;;12.20;56.50;;;;;;4975311;28;20481;-73
2023/03/15 06:49:54;;;;;;;4.30;1.53;;;13.30;52.30;;;;;;4975226;28;20509;-74
2023/03/15 06:52:22;;;;;;;4.50;2.00;;;13.00;50.40;;;;;;4975162;28;20466;-73
2023/03/15 06:54:49;;;;;;;4.17;1.83;;;11.70;52.50;;;;;;4975152;28;20450;-73
2023/03/15 06:57:16;;;;;;;2.90;2.00;;;12.20;53.20;;;;;;4975081;28;20446;-73
2023/03/15 06:59:42;;;;;;;2.77;1.50;;;12.70;51.50;;;;;;4974644;28;20878;-70
2023/03/15 07:02:14;;;;;;;5.10;1.77;;;12.60;53.00;;;;;;4974483;28;20501;-74
2023/03/15 07:04:40;;;;;;;3.87;1.70;;;14.10;50.80;;;;;;4974959;28;20430;-73
2023/03/15 07:07:07;;;;;;;5.00;1.60;;;15.60;47.00;;;;;;4974778;28;20478;-73
2023/03/15 07:09:35;;;;;;;3.00;1.80;;;15.70;46.40;;;;;;4974885;28;20450;-73
2023/03/15 07:12:02;;;;;;;2.80;1.60;;;16.40;44.60;;;;;;4974842;28;20467;-73
2023/03/15 07:14:29;;;;;;;3.67;1.60;;;16.30;45.80;;;;;;4974822;28;20446;-73
2023/03/15 07:16:55;;;;;;;3.80;2.23;;;16.70;44.90;;;;;;4974800;28;20446;-73
2023/03/15 07:19:22;;;;;;;2.70;1.50;;;17.50;43.30;;;;;;4974725;28;20482;-73
2023/03/15 07:21:49;;;;;;;3.10;1.50;;;17.60;43.30;;;;;;4974588;28;20553;-73
2023/03/15 07:24:15;;;;;;;5.17;1.77;;;17.50;43.00;;;;;;4975136;28;20446;-73
2023/03/15 07:26:43;;;;;;;2.97;1.50;;;16.30;44.80;;;;;;4974687;28;20497;-71
2023/03/15 07:29:10;;;;;;;3.10;1.70;;;16.00;46.00;;;;;;4974259;28;20867;-71
2023/03/15 07:31:37;;;;;;;3.17;1.70;;;16.00;45.00;;;;;;4974769;28;20478;-72
2023/03/15 07:34:03;;;;;;;3.47;1.60;;;16.00;45.60;;;;;;4974274;28;20501;-73
2023/03/15 07:36:31;;;;;;;2.47;1.23;;;16.20;45.30;;;;;;4974597;28;20454;-73
2023/03/15 07:38:57;;;;;;;5.03;1.63;;;16.50;45.20;;;;;;4974577;28;20450;-73
2023/03/15 07:41:24;;;;;;;3.90;1.80;;;15.60;47.10;;;;;;4974439;28;20469;-74
2023/03/15 07:43:52;;;;;;;5.30;1.97;;;14.20;47.40;;;;;;4974365;28;20489;-72
2023/03/15 07:46:19;;;;;;;5.80;1.47;;;12.80;51.90;;;;;;4974520;28;20450;-71
2023/03/15 07:48:45;;;;;;;2.80;1.20;;;11.30;53.30;;;;;;4974457;28;20453;-71
2023/03/15 07:51:12;;;;;;;3.60;1.70;;;10.60;57.40;;;;;;4974325;28;20478;-71
2023/03/15 07:53:38;;;;;;;2.73;1.47;;;9.50;59.60;;;;;;4974392;28;20450;-72
2023/03/15 07:56:06;;;;;;;2.53;1.30;;;9.30;61.60;;;;;;4974476;28;20509;-73
2023/03/15 07:58:32;;;;;;;4.23;1.90;;;9.10;62.10;;;;;;4974600;28;20501;-73
2023/03/15 08:01:00;;;;;;;3.03;1.47;;;8.90;62.40;;;;;;4974719;28;20482;-73
2023/03/15 08:03:27;;;;;;;4.03;1.53;;;8.30;63.10;;;;;;4974648;28;20583;-72
2023/03/15 08:05:54;;;;;;;3.00;1.80;;;7.50;65.20;;;;;;4974422;28;20450;-72
2023/03/15 08:08:21;;;;;;;4.93;1.73;;;6.70;66.50;;;;;;4974543;28;20513;-72
2023/03/15 08:10:48;;;;;;;2.70;1.73;;;6.60;68.70;;;;;;4976420;28;20478;-72
2023/03/15 08:13:14;;;;;;;2.50;1.60;;;6.10;69.60;;;;;;4978299;28;20443;-72
2023/03/15 08:15:44;;;;;;;3.10;1.57;;;5.80;70.50;;;;;;4978263;28;20453;-72
2023/03/15 08:18:13;;;;;;;3.23;1.87;;;5.90;72.90;;;;;;4978241;28;20455;-72
2023/03/15 08:20:39;;;;;;;2.60;1.47;;;6.00;70.90;;;;;;4977975;28;20505;-72
2023/03/15 08:23:07;;;;;;;3.43;1.50;;;6.20;71.90;;;;;;4977991;28;20482;-74
2023/03/15 08:25:35;;;;;;;3.80;1.40;;;6.00;70.70;;;;;;4977858;28;20464;-70
2023/03/15 08:28:02;;;;;;;3.37;1.70;;;5.50;71.10;;;;;;4977885;28;20488;-73
2023/03/15 08:30:28;;;;;;;2.93;1.50;;;5.20;72.40;;;;;;4977845;28;20453;-72
2023/03/15 08:32:55;;;;;;;3.40;1.37;;;5.10;74.10;;;;;;4977876;28;20521;-72
2023/03/15 08:35:23;;;;;;;5.37;1.83;;;5.50;75.00;;;;;;4978007;28;20862;-72
2023/03/15 08:37:51;;;;;;;3.47;1.77;;;5.30;73.10;;;;;;4977882;28;20458;-73
2023/03/15 08:40:23;;;;;;;5.80;1.90;;;5.40;73.30;;;;;;4977713;28;20446;-71
2023/03/15 08:42:50;;;;;;;3.10;1.73;;;5.70;74.20;;;;;;4978167;28;20576;-72
2023/03/15 08:45:17;;;;;;;3.30;1.70;;;5.90;71.60;;;;;;4977615;28;20450;-72
2023/03/15 08:47:44;;;;;;;6.20;1.53;;;6.00;72.70;;;;;;4977490;28;20916;-72
2023/03/15 08:50:14;;;;;;;3.70;1.53;;;6.30;70.20;;;;;;4977550;28;20509;-71
2023/03/15 08:52:42;;;;;;;2.90;1.47;;;6.50;70.50;;;;;;4977469;28;20557;-73
2023/03/15 08:55:13;;;;;;;2.77;1.43;;;6.80;68.70;;;;;;4977691;28;20450;-72
2023/03/15 08:57:40;;;;;;;2.60;1.23;;;6.80;66.90;;;;;;4977253;28;20430;-71
2023/03/15 09:00:08;;;;;;;3.70;1.40;;;6.60;66.60;;;;;;4977017;28;20450;-72
2023/03/15 09:02:35;;;;;;;2.73;1.30;;;6.70;67.90;;;;;;4975779;28;20493;-72
2023/03/15 09:05:02;;;;;;;2.67;1.67;;;6.40;66.60;;;;;;4977347;28;20446;-71
2023/03/15 09:07:29;;;;;;;2.40;1.20;;;6.50;67.50;;;;;;4977308;28;20501;-72
2023/03/15 09:09:57;;;;;;;5.50;1.63;;;6.40;65.80;;;;;;4977174;28;20450;-73
2023/03/15 09:12:23;;;;;;;4.30;1.40;;;6.20;64.40;;;;;;4977173;28;20524;-73
2023/03/15 09:14:50;;;;;;;3.23;1.50;;;5.70;65.70;;;;;;4977226;28;20454;-72
2023/03/15 09:17:17;;;;;;;4.87;1.60;;;5.60;66.50;;;;;;4977172;28;20485;-70
2023/03/15 09:19:43;;;;;;;3.10;1.33;;;5.90;68.70;;;;;;4977037;28;20458;-72
2023/03/15 09:22:11;;;;;;;3.80;1.77;;;6.30;67.10;;;;;;4975720;28;20470;-71
2023/03/15 09:24:37;;;;;;;3.03;1.67;;;6.50;67.80;;;;;;4976605;28;20489;-71
2023/03/15 09:27:05;;;;;;;4.30;1.27;;;6.60;67.80;;;;;;4976465;28;20994;-73
2023/03/15 09:29:33;;;;;;;2.43;1.23;;;6.50;66.60;;;;;;4976700;28;20446;-72
2023/03/15 09:32:00;;;;;;;3.33;1.60;;;6.40;65.40;;;;;;4976643;28;20565;-73
2023/03/15 09:34:27;;;;;;;2.30;1.30;;;6.20;66.30;;;;;;4976633;28;20453;-72
2023/03/15 09:36:54;;;;;;;3.57;1.60;;;6.30;66.70;;;;;;4976598;28;20490;-71
2023/03/15 09:39:21;;;;;;;3.20;1.53;;;6.60;66.60;;;;;;4976317;28;20959;-72
2023/03/15 09:41:51;;;;;;;4.37;1.47;;;6.60;65.70;;;;;;4976555;28;20466;-72
2023/03/15 09:44:34;;;;;;;2.73;1.63;;;6.40;65.70;;;;;;4976341;28;20481;-73
2023/03/15 09:47:16;;;;;;;2.63;1.43;;;6.50;65.40;;;;;;4976957;28;20451;-73
2023/03/15 09:49:50;;;;;;;3.10;1.33;;;6.40;65.50;;;;;;4976485;28;20439;-72
2023/03/15 09:52:26;;;;;;;2.67;1.37;;;6.40;65.20;;;;;;4976289;28;20473;-72
2023/03/15 09:54:57;;;;;;;3.20;1.60;;;6.20;65.00;;;;;;4976400;28;20434;-72
2023/03/15 09:57:35;;;;;;;2.47;1.20;;;6.00;66.20;;;;;;4976450;28;20489;-72
2023/03/15 10:00:10;;;;;;;5.10;1.10;;;6.00;67.50;;;;;;4976211;28;20453;-72
2023/03/15 10:02:43;;;;;;;2.33;1.03;;;6.00;67.00;;;;;;4975628;28;20995;-72
2023/03/15 10:05:15;;;;;;;3.13;1.40;;;6.10;67.20;;;;;;4976202;28;20442;-71
2023/03/15 10:07:41;;;;;;;4.23;1.40;;;6.20;66.00;;;;;;4976203;28;20462;-72
2023/03/15 10:10:16;;;;;;;2.30;1.10;;;6.30;66.10;;;;;;4976127;28;20458;-73
2023/03/15 10:12:50;;;;;;;2.40;1.13;;;6.20;68.50;;;;;;4976018;28;20485;-72
2023/03/15 10:15:28;;;;;;;3.20;1.33;;;6.20;69.50;;;;;;4976051;28;20444;-72
2023/03/15 10:18:26;;;;;;;2.20;1.10;;;6.30;67.50;;;;;;5032695;23;20840;-76
2023/03/15 10:21:00;;;;;;;2.93;1.10;;;6.30;67.40;;;;;;4976218;28;20829;-77
2023/03/15 10:23:38;;;;;;;3.43;1.40;;;6.70;65.10;;;;;;4975723;28;20500;-76
2023/03/15 10:26:11;;;;;;;2.60;1.23;;;6.80;67.30;;;;;;4976143;28;20438;-76
2023/03/15 10:28:38;;;;;;;2.50;0.97;;;7.00;63.80;;;;;;4976588;28;20950;-77
2023/03/15 10:31:13;;;;;;;4.70;1.20;;;7.10;64.90;;;;;;4976383;28;20454;-77
2023/03/15 10:33:41;;;;;;;2.63;1.10;;;6.90;63.50;;;;;;4975778;28;20426;-75
2023/03/15 10:36:15;;;;;;;1.90;0.80;;;6.80;64.40;;;;;;4975521;28;20513;-76
2023/03/15 10:38:42;;;;;;;2.47;1.17;;;6.80;64.80;;;;;;4975573;28;20434;-76
2023/03/15 10:41:12;;;;;;;4.03;1.37;;;6.90;65.80;;;;;;4975829;28;20450;-77
2023/03/15 10:43:40;;;;;;;2.97;1.10;;;6.80;66.20;;;;;;4975518;28;20502;-75
2023/03/15 10:46:08;;;;;;;2.10;1.00;;;6.90;63.40;;;;;;4975226;28;20564;-75
2023/03/15 10:48:39;;;;;;;2.93;1.23;;;7.00;64.40;;;;;;4975077;28;20451;-73
2023/03/15 10:51:07;;;;;;;2.67;1.20;;;7.00;67.30;;;;;;4975477;28;20964;-74
2023/03/15 10:53:34;;;;;;;3.60;1.27;;;7.30;66.30;;;;;;4975122;28;20465;-75
2023/03/15 10:56:06;;;;;;;2.90;1.60;;;7.50;63.10;;;;;;4974970;28;20459;-74
2023/03/15 10:58:40;;;;;;;5.07;1.50;;;7.40;63.20;;;;;;4975049;28;20794;-76
2023/03/15 11:01:11;;;;;;;2.53;1.00;;;7.50;62.70;;;;;;4975027;28;20488;-75
2023/03/15 11:03:42;;;;;;;2.23;1.03;;;7.60;62.60;;;;;;4974569;28;20847;-74
2023/03/15 11:06:20;;;;;;;3.73;1.30;;;7.70;62.90;;;;;;4974545;28;20980;-75
2023/03/15 11:08:47;;;;;;;2.20;0.90;;;8.10;62.20;;;;;;4974853;28;20435;-75
2023/03/15 11:11:14;;;;;;;2.70;1.43;;;8.10;62.60;;;;;;4974776;28;20454;-74
2023/03/15 11:13:42;;;;;;;2.17;1.00;;;8.00;61.50;;;;;;4974610;28;20446;-75
2023/03/15 11:16:20;;;;;;;2.40;1.07;;;8.00;60.30;;;;;;4976505;28;20533;-76
2023/03/15 11:18:52;;;;;;;2.43;0.90;;;8.10;61.30;;;;;;4975879;28;20449;-75
2023/03/15 11:21:20;;;;;;;2.37;0.80;;;8.20;59.80;;;;;;4975099;28;20435;-76
2023/03/15 11:23:50;;;;;;;4.73;1.47;;;8.20;58.20;;;;;;4974760;28;20497;-75
2023/03/15 11:26:20;;;;;;;2.00;0.70;;;7.70;57.60;;;;;;4974553;28;20477;-75
2023/03/15 11:28:52;;;;;;;2.20;1.23;;;7.70;60.40;;;;;;4974642;28;20445;-75
2023/03/15 11:31:20;;;;;;;3.40;1.30;;;7.90;60.30;;;;;;4974514;28;20438;-76
2023/03/15 11:33:54;;;;;;;2.70;1.00;;;8.20;60.30;;;;;;4974336;28;20501;-75
2023/03/15 11:36:26;;;;;;;2.20;0.80;;;8.00;58.30;;;;;;4974517;28;20476;-76
2023/03/15 11:38:54;;;;;;;2.30;1.00;;;8.10;60.20;;;;;;4974486;28;20584;-75
2023/03/15 11:41:33;;;;;;;2.00;0.90;;;8.20;59.70;;;;;;4974018;28;20964;-77
2023/03/15 11:44:08;;;;;;;2.40;1.00;;;8.50;60.00;;;;;;4974219;28;20556;-77
2023/03/15 11:46:40;;;;;;;2.67;0.97;;;8.50;58.00;;;;;;4974109;28;20556;-76
2023/03/15 11:49:15;;;;;;;2.63;1.00;;;8.40;57.70;;;;;;4974873;28;20442;-77
2023/03/15 11:51:42;;;;;;;2.33;0.90;;;8.40;57.60;;;;;;4974637;28;20516;-77
2023/03/15 11:54:14;;;;;;;2.50;0.90;;;8.30;56.20;;;;;;4974370;28;20450;-77
2023/03/15 11:56:56;;;;;;;2.53;0.97;;;8.30;56.90;;;;;;4976010;28;20470;-77
2023/03/15 11:59:28;;;;;;;2.17;0.93;;;8.30;57.60;;;;;;4973640;28;20464;-77
2023/03/15 12:01:58;;;;;;;2.00;0.80;;;8.30;56.90;;;;;;4975002;28;20510;-77
2023/03/15 12:04:40;;;;;;;2.20;0.93;;;8.40;56.80;;;;;;4974705;28;20493;-76
2023/03/15 12:07:28;;;;;;;2.83;0.90;;;8.50;56.70;;;;;;4975152;28;20474;-77
2023/03/15 12:09:56;;;;;;;2.67;0.80;;;8.40;56.30;;;;;;4975681;28;20458;-78
2023/03/15 12:12:36;;;;;;;2.30;1.00;;;8.40;55.60;;;;;;4975003;28;20956;-77
2023/03/15 12:15:07;;;;;;;2.10;0.80;;;8.30;55.20;;;;;;4974738;28;20789;-76
2023/03/15 12:17:42;;;;;;;3.07;1.20;;;8.30;56.00;;;;;;4975203;28;20568;-78
2023/03/15 12:20:21;;;;;;;2.17;0.80;;;8.30;55.30;;;;;;4976431;28;20435;-77
2023/03/15 12:22:52;;;;;;;2.13;0.83;;;8.30;54.80;;;;;;4975035;28;20476;-77
2023/03/15 12:25:24;;;;;;;2.20;0.90;;;8.30;55.40;;;;;;4975502;28;20497;-76
2023/03/15 12:27:53;;;;;;;1.97;0.80;;;8.40;55.90;;;;;;4974410;28;20474;-75
2023/03/15 12:30:23;;;;;;;2.03;0.80;;;8.60;55.00;;;;;;4974520;28;20989;-77
2023/03/15 12:32:53;;;;;;;2.20;0.80;;;8.80;55.10;;;;;;4974490;28;20446;-76
2023/03/15 12:35:23;;;;;;;2.10;0.83;;;8.90;54.40;;;;;;4974430;28;20458;-76
2023/03/15 12:37:52;;;;;;;2.30;0.90;;;8.70;54.40;;;;;;4974614;28;20474;-78
2023/03/15 12:40:47;;;;;;;3.43;1.17;;;8.70;54.50;;;;;;4974524;28;20869;-75
2023/03/15 12:43:14;;;;;;;2.00;0.77;;;8.70;54.70;;;;;;4974363;28;20442;-75
2023/03/15 12:45:45;;;;;;;3.33;1.23;;;8.70;54.80;;;;;;4975012;28;20872;-76
2023/03/15 12:48:25;;;;;;;2.53;0.80;;;8.80;55.20;;;;;;4974771;28;20464;-77
2023/03/15 12:50:56;;;;;;;2.80;0.90;;;9.00;55.00;;;;;;4974415;28;20442;-77
2023/03/15 12:53:29;;;;;;;2.10;0.77;;;9.10;55.20;;;;;;4977616;28;20438;-78
2023/03/15 12:55:57;;;;;;;2.03;0.80;;;9.50;55.30;;;;;;4976379;28;20416;-76
2023/03/15 12:58:29;;;;;;;2.10;0.90;;;9.80;54.50;;;;;;4978829;28;20446;-76
2023/03/15 13:00:56;;;;;;;2.00;0.80;;;10.00;53.80;;;;;;4979513;28;20546;-76
2023/03/15 13:03:25;;;;;;;2.73;0.87;;;9.90;52.60;;;;;;4978700;28;20450;-75
2023/03/15 13:06:00;;;;;;;2.40;0.93;;;9.60;54.70;;;;;;4978017;28;20490;-75
2023/03/15 13:08:31;;;;;;;2.83;0.90;;;9.60;55.20;;;;;;4978245;28;20880;-76
2023/03/15 13:11:12;;;;;;;2.83;1.00;;;9.60;55.00;;;;;;4980068;28;20419;-77
2023/03/15 13:14:03;;;;;;;2.60;1.27;;;9.60;55.50;;;;;;4986712;28;20829;-76
2023/03/15 13:16:36;;;;;;;2.03;0.90;;;9.60;56.20;;;;;;4989402;28;20494;-77
2023/03/15 13:19:16;;;;;;;2.40;0.80;;;9.40;56.60;;;;;;4980895;28;20774;-76
2023/03/15 13:21:57;;;;;;;3.13;1.10;;;9.30;56.80;;;;;;4979365;28;20427;-76
2023/03/15 13:24:33;;;;;;;2.10;0.90;;;9.30;57.60;;;;;;4977825;28;20466;-77
2023/03/15 13:27:06;;;;;;;3.23;1.33;;;9.40;58.00;;;;;;4977931;28;20474;-77
2023/03/15 13:29:33;;;;;;;2.40;1.00;;;9.40;57.20;;;;;;4978210;28;20435;-77
2023/03/15 13:32:02;;;;;;;2.00;0.90;;;9.40;57.70;;;;;;4978254;28;20473;-77
2023/03/15 13:34:33;;;;;;;2.80;1.17;;;9.40;58.00;;;;;;4978277;28;20529;-77
2023/03/15 13:37:01;;;;;;;3.23;1.40;;;9.40;58.20;;;;;;4978001;28;20876;-77
2023/03/15 13:39:31;;;;;;;3.23;2.07;;;9.40;57.50;;;;;;4978523;28;20478;-78
2023/03/15 13:41:59;;;;;;;2.53;1.10;;;9.50;57.30;;;;;;4981988;28;20497;-78
2023/03/15 13:44:29;;;;;;;2.53;1.03;;;9.60;58.00;;;;;;4980070;28;20478;-77
2023/03/15 13:46:56;;;;;;;3.57;1.23;;;9.40;57.70;;;;;;4976837;28;20509;-76
2023/03/15 13:49:23;;;;;;;2.10;1.03;;;9.20;59.70;;;;;;4976984;28;20455;-77
2023/03/15 13:51:52;;;;;;;2.20;1.00;;;9.00;60.90;;;;;;4976995;28;20450;-77
2023/03/15 13:54:25;;;;;;;2.50;1.10;;;8.90;61.90;;;;;;4976898;28;20955;-76
2023/03/15 13:57:02;;;;;;;2.10;0.90;;;8.60;63.40;;;;;;4976755;28;20470;-76
2023/03/15 13:59:32;;;;;;;2.27;1.10;;;8.50;64.60;;;;;;4976594;28;20442;-76
2023/03/15 14:02:01;;;;;;;2.40;1.00;;;8.40;65.80;;;;;;4977128;28;20445;-76
2023/03/15 14:04:29;;;;;;;2.13;1.07;;;8.40;66.60;;;;;;4976256;28;20564;-76
2023/03/15 14:07:15;;;;;;;3.17;1.33;;;8.40;67.00;;;;;;4976029;28;20556;-78
2023/03/15 14:09:43;;;;;;;2.40;1.10;;;8.40;67.80;;;;;;4975422;28;20438;-76
2023/03/15 14:12:21;;;;;;;2.40;0.90;;;8.40;68.20;;;;;;4976076;28;20455;-74
2023/03/15 14:14:51;;;;;;;2.33;1.27;;;8.40;68.50;;;;;;4975600;28;20446;-76
2023/03/15 14:17:25;;;;;;;2.00;0.90;;;8.80;68.70;;;;;;4975848;28;20545;-77
2023/03/15 14:19:54;;;;;;;3.60;1.43;;;10.00;66.60;;;;;;4976043;28;20469;-76
2023/03/15 14:22:21;;;;;;;2.10;0.90;;;11.90;61.30;;;;;;4976291;28;20815;-76
2023/03/15 14:24:52;;;;;;;2.20;1.30;;;14.30;55.80;;;;;;4975646;28;20488;-76
2023/03/15 14:27:20;;;;;;;2.13;0.97;;;17.00;50.70;;;;;;4975771;28;20466;-77
2023/03/15 14:29:49;;;;;;;2.40;0.90;;;18.90;45.30;;;;;;4975915;28;20457;-74
2023/03/15 14:32:26;;;;;;;2.10;0.90;;;19.20;46.40;;;;;;4976568;28;20450;-77
2023/03/15 14:35:01;;;;;;;2.30;1.00;;;20.80;41.40;;;;;;4975763;28;20454;-76
2023/03/15 14:37:31;;;;;;;2.10;1.00;;;21.10;40.50;;;;;;4976013;28;20469;-77
2023/03/15 14:40:12;;;;;;;2.20;1.03;;;20.00;41.10;;;;;;4976055;28;20437;-78
2023/03/15 14:42:39;;;;;;;2.33;0.90;;;18.70;42.90;;;;;;4975465;28;20987;-77
2023/03/15 14:45:08;;;;;;;3.20;0.97;;;17.20;44.90;;;;;;4976043;28;20690;-77
2023/03/15 14:47:39;;;;;;;2.33;0.80;;;15.80;47.30;;;;;;4975919;28;20564;-75
2023/03/15 14:50:12;;;;;;;3.80;1.30;;;14.80;49.10;;;;;;4975434;28;20485;-77
2023/03/15 14:52:41;;;;;;;2.20;0.90;;;14.90;49.10;;;;;;4975823;28;20438;-75
2023/03/15 14:55:12;;;;;;;2.57;0.90;;;14.80;49.10;;;;;;4975939;28;20446;-77
2023/03/15 14:57:39;;;;;;;2.80;1.10;;;14.00;50.30;;;;;;4975429;28;21038;-77
2023/03/15 15:00:09;;;;;;;2.30;1.30;;;13.30;51.80;;;;;;4975975;28;20975;-77
2023/03/15 15:02:37;;;;;;;2.87;0.97;;;12.60;53.10;;;;;;4975239;28;20458;-75
2023/03/15 15:05:04;;;;;;;2.10;1.00;;;11.60;55.10;;;;;;4975272;28;20497;-77
2023/03/15 15:07:31;;;;;;;2.60;1.20;;;11.00;56.80;;;;;;4975316;28;20485;-78
2023/03/15 15:09:58;;;;;;;2.23;0.97;;;10.40;58.70;;;;;;4975423;28;20446;-78
2023/03/15 15:12:26;;;;;;;2.17;1.30;;;10.10;60.00;;;;;;4975325;28;20477;-77
2023/03/15 15:14:53;;;;;;;2.37;1.00;;;9.80;61.30;;;;;;4975335;28;20446;-77
2023/03/15 15:17:20;;;;;;;2.17;1.07;;;9.70;62.10;;;;;;4974733;28;20489;-77
2023/03/15 15:19:46;;;;;;;2.10;0.90;;;9.40;63.30;;;;;;4974152;28;20476;-76
2023/03/15 15:22:13;;;;;;;2.50;1.00;;;9.00;66.20;;;;;;4974545;28;20517;-76
2023/03/15 15:24:40;;;;;;;2.70;1.10;;;8.50;69.90;;;;;;4974491;28;20999;-77
2023/03/15 15:27:09;;;;;;;3.20;1.67;;;8.10;72.30;;;;;;4975102;28;20485;-78
2023/03/15 15:29:37;;;;;;;2.23;1.00;;;7.90;73.60;;;;;;4974755;28;20955;-77
2023/03/15 15:32:04;;;;;;;2.60;1.13;;;7.80;74.70;;;;;;4975182;28;20458;-78
2023/03/15 15:34:32;;;;;;;2.30;1.30;;;7.60;75.20;;;;;;4974813;28;20453;-77
2023/03/15 15:37:00;;;;;;;2.53;1.50;;;7.60;75.70;;;;;;4974599;28;20979;-77
2023/03/15 15:39:28;;;;;;;2.07;1.07;;;7.50;77.00;;;;;;4974856;28;20482;-77
2023/03/15 15:41:55;;;;;;;2.63;1.20;;;7.50;78.00;;;;;;4974614;28;20450;-77
2023/03/15 15:44:24;;;;;;;2.20;1.13;;;7.60;77.90;;;;;;4975033;28;20449;-78
2023/03/15 15:46:53;;;;;;;2.17;1.03;;;7.70;77.80;;;;;;4974809;28;20557;-77
2023/03/15 15:49:19;;;;;;;2.40;1.00;;;7.80;77.20;;;;;;4974386;28;20851;-75
2023/03/15 15:51:48;;;;;;;2.13;1.00;;;7.60;76.80;;;;;;4974952;28;20811;-77
2023/03/15 15:54:17;;;;;;;1.90;0.90;;;7.60;77.20;;;;;;4974928;28;20465;-76
2023/03/15 15:56:49;;;;;;;2.47;0.97;;;7.50;77.30;;;;;;4975282;28;20466;-77
2023/03/15 15:59:17;;;;;;;2.00;0.87;;;7.50;77.30;;;;;;4976288;28;20453;-78
2023/03/15 16:01:45;;;;;;;2.83;1.20;;;7.60;77.50;;;;;;4975535;28;20451;-78
2023/03/15 16:04:13;;;;;;;2.50;1.07;;;7.70;77.50;;;;;;4975221;28;20458;-76
2023/03/15 16:06:40;;;;;;;2.00;0.97;;;7.80;77.10;;;;;;4974251;28;20490;-76
2023/03/15 16:09:10;;;;;;;2.37;1.03;;;8.00;76.50;;;;;;4974510;28;20943;-78
2023/03/15 16:11:38;;;;;;;2.27;1.30;;;8.00;76.20;;;;;;4974319;28;20951;-77
2023/03/15 16:14:05;;;;;;;2.13;1.10;;;7.90;76.00;;;;;;4974540;28;20458;-77
2023/03/15 16:16:32;;;;;;;3.00;1.70;;;7.70;76.70;;;;;;4974749;28;20482;-77
2023/03/15 16:18:58;;;;;;;2.10;1.00;;;7.70;77.00;;;;;;4973911;28;20505;-76
2023/03/15 16:21:32;;;;;;;2.20;1.10;;;7.70;77.40;;;;;;4973962;28;20458;-76
2023/03/15 16:24:04;;;;;;;2.57;1.20;;;7.50;77.40;;;;;;4974094;28;20431;-74
2023/03/15 16:26:31;;;;;;;1.97;0.90;;;7.40;78.00;;;;;;4973808;28;20576;-76
2023/03/15 16:28:58;;;;;;;2.20;1.00;;;7.30;78.30;;;;;;4974050;28;20461;-76
2023/03/15 16:31:24;;;;;;;3.60;1.53;;;7.20;78.50;;;;;;4975046;28;20434;-77
2023/03/15 16:33:51;;;;;;;2.20;1.03;;;7.10;78.60;;;;;;4981349;28;20457;-77
2023/03/15 16:36:20;;;;;;;2.10;1.00;;;6.80;79.30;;;;;;4979687;28;20465;-76
2023/03/15 16:38:49;;;;;;;2.30;1.20;;;6.60;79.50;;;;;;4980163;28;20458;-75
2023/03/15 16:41:17;;;;;;;4.73;3.50;;;6.60;80.30;;;;;;4979495;28;20454;-76
2023/03/15 16:43:44;;;;;;;3.73;2.30;;;6.30;80.60;;;;;;4978459;28;20459;-76
2023/03/15 16:46:15;;;;;;;2.43;1.20;;;6.20;80.80;;;;;;4977858;28;20942;-76
2023/03/15 16:48:42;;;;;;;3.03;1.20;;;6.00;81.00;;;;;;4978029;28;20454;-76
2023/03/15 16:51:12;;;;;;;2.70;1.33;;;6.00;82.10;;;;;;4977623;28;20450;-76
2023/03/15 16:53:43;;;;;;;2.90;1.40;;;6.00;82.50;;;;;;4978499;28;20544;-76
2023/03/15 16:56:13;;;;;;;2.40;1.20;;;5.70;82.50;;;;;;4977449;28;20553;-73
2023/03/15 16:58:41;;;;;;;2.60;1.37;;;5.60;83.20;;;;;;4978116;28;20785;-75
2023/03/15 17:01:10;;;;;;;3.67;1.20;;;5.70;83.60;;;;;;4977237;28;21010;-75
2023/03/15 17:03:36;;;;;;;2.20;1.10;;;5.70;83.30;;;;;;4977166;28;20459;-76
2023/03/15 17:06:03;;;;;;;3.27;1.40;;;5.60;83.60;;;;;;4977082;28;20489;-76